sensor_id;sensor_type;location;lat;lon;timestamp;P1;durP1;ratioP1;P2;durP2;ratioP2
61756;SDS011;57225;61.460;24.060;2023-03-14T00:01:26;0.88;;;0.60;;
61756;SDS011;57225;61.460;24.060;2023-03-14T00:04:11;2.83;;;0.73;;
61756;SDS011;57225;61.460;24.060;2023-03-14T00:06:55;2.10;;;0.80;;
61756;SDS011;57225;61.460;24.060;2023-03-14T00:09:40;1.98;;;0.77;;
61756;SDS011;57225;61.460;24.060;2023-03-14T00:12:24;4.30;;;2.20;;
61756;SDS011;57225;61.460;24.060;2023-03-14T00:15:09;2.33;;;1.10;;
61756;SDS011;57225;61.460;24.060;2023-03-14T00:17:54;1.60;;;0.80;;
61756;SDS011;57225;61.460;24.060;2023-03-14T00:20:39;1.90;;;1.00;;
61756;SDS011;57225;61.460;24.060;2023-03-14T00:23:23;1.67;;;0.90;;
61756;SDS011;57225;61.460;24.060;2023-03-14T00:26:09;2.45;;;0.93;;
61756;SDS011;57225;61.460;24.060;2023-03-14T00:28:58;3.35;;;0.90;;
61756;SDS011;57225;61.460;24.060;2023-03-14T00:31:42;2.13;;;0.90;;
61756;SDS011;57225;61.460;24.060;2023-03-14T00:34:30;2.40;;;0.88;;
61756;SDS011;57225;61.460;24.060;2023-03-14T00:37:15;1.30;;;0.80;;
61756;SDS011;57225;61.460;24.060;2023-03-14T00:40:00;2.00;;;0.77;;
61756;SDS011;57225;61.460;24.060;2023-03-14T00:42:44;3.83;;;0.98;;
61756;SDS011;57225;61.460;24.060;2023-03-14T00:45:28;2.45;;;0.80;;
61756;SDS011;57225;61.460;24.060;2023-03-14T00:48:13;3.13;;;0.98;;
61756;SDS011;57225;61.460;24.060;2023-03-14T00:50:57;1.55;;;0.60;;
61756;SDS011;57225;61.460;24.060;2023-03-14T00:53:42;1.30;;;0.80;;
61756;SDS011;57225;61.460;24.060;2023-03-14T00:56:27;1.98;;;1.10;;
61756;SDS011;57225;61.460;24.060;2023-03-14T00:59:11;0.90;;;0.65;;
61756;SDS011;57225;61.460;24.060;2023-03-14T01:01:55;2.13;;;0.95;;
61756;SDS011;57225;61.460;24.060;2023-03-14T01:04:40;1.10;;;0.65;;
61756;SDS011;57225;61.460;24.060;2023-03-14T01:07:26;0.93;;;0.70;;
61756;SDS011;57225;61.460;24.060;2023-03-14T01:10:11;1.83;;;0.70;;
61756;SDS011;57225;61.460;24.060;2023-03-14T01:12:55;2.15;;;0.80;;
61756;SDS011;57225;61.460;24.060;2023-03-14T01:15:40;1.40;;;0.90;;
61756;SDS011;57225;61.460;24.060;2023-03-14T01:18:24;0.73;;;0.50;;
61756;SDS011;57225;61.460;24.060;2023-03-14T01:24:21;1.15;;;0.75;;
61756;SDS011;57225;61.460;24.060;2023-03-14T01:27:06;1.25;;;0.60;;
61756;SDS011;57225;61.460;24.060;2023-03-14T01:29:50;0.88;;;0.50;;
61756;SDS011;57225;61.460;24.060;2023-03-14T01:32:36;0.95;;;0.60;;
61756;SDS011;57225;61.460;24.060;2023-03-14T01:35:20;0.50;;;0.38;;
61756;SDS011;57225;61.460;24.060;2023-03-14T01:38:05;0.93;;;0.57;;
61756;SDS011;57225;61.460;24.060;2023-03-14T01:40:49;2.15;;;0.70;;
61756;SDS011;57225;61.460;24.060;2023-03-14T01:43:34;1.48;;;0.73;;
61756;SDS011;57225;61.460;24.060;2023-03-14T01:46:26;1.90;;;0.47;;
61756;SDS011;57225;61.460;24.060;2023-03-14T01:52:10;0.75;;;0.50;;
61756;SDS011;57225;61.460;24.060;2023-03-14T01:55:25;0.43;;;0.30;;
61756;SDS011;57225;61.460;24.060;2023-03-14T01:58:09;0.80;;;0.45;;
61756;SDS011;57225;61.460;24.060;2023-03-14T02:00:55;0.65;;;0.40;;
61756;SDS011;57225;61.460;24.060;2023-03-14T02:03:46;1.27;;;0.50;;
61756;SDS011;57225;61.460;24.060;2023-03-14T02:06:42;0.50;;;0.40;;
61756;SDS011;57225;61.460;24.060;2023-03-14T02:09:32;0.70;;;0.45;;
61756;SDS011;57225;61.460;24.060;2023-03-14T02:12:16;1.48;;;0.60;;
61756;SDS011;57225;61.460;24.060;2023-03-14T02:15:02;0.68;;;0.40;;
61756;SDS011;57225;61.460;24.060;2023-03-14T02:17:47;1.85;;;0.43;;
61756;SDS011;57225;61.460;24.060;2023-03-14T02:20:50;0.50;;;0.43;;
61756;SDS011;57225;61.460;24.060;2023-03-14T02:24:27;0.38;;;0.30;;
61756;SDS011;57225;61.460;24.060;2023-03-14T02:27:18;1.10;;;0.28;;
61756;SDS011;57225;61.460;24.060;2023-03-14T02:30:11;0.77;;;0.50;;
61756;SDS011;57225;61.460;24.060;2023-03-14T02:33:04;0.50;;;0.32;;
61756;SDS011;57225;61.460;24.060;2023-03-14T02:39:07;1.05;;;0.28;;
61756;SDS011;57225;61.460;24.060;2023-03-14T02:41:57;1.70;;;0.30;;
61756;SDS011;57225;61.460;24.060;2023-03-14T02:44:49;0.75;;;0.40;;
61756;SDS011;57225;61.460;24.060;2023-03-14T02:47:37;0.90;;;0.22;;
61756;SDS011;57225;61.460;24.060;2023-03-14T02:50:28;0.93;;;0.50;;
61756;SDS011;57225;61.460;24.060;2023-03-14T02:53:16;2.78;;;0.60;;
61756;SDS011;57225;61.460;24.060;2023-03-14T02:56:03;0.30;;;0.30;;
61756;SDS011;57225;61.460;24.060;2023-03-14T02:58:47;0.50;;;0.30;;
61756;SDS011;57225;61.460;24.060;2023-03-14T03:01:33;4.20;;;0.52;;
61756;SDS011;57225;61.460;24.060;2023-03-14T03:04:18;0.80;;;0.55;;
61756;SDS011;57225;61.460;24.060;2023-03-14T03:07:02;0.40;;;0.30;;
61756;SDS011;57225;61.460;24.060;2023-03-14T03:09:47;0.73;;;0.43;;
61756;SDS011;57225;61.460;24.060;2023-03-14T03:12:31;0.88;;;0.47;;
61756;SDS011;57225;61.460;24.060;2023-03-14T03:15:16;0.47;;;0.40;;
61756;SDS011;57225;61.460;24.060;2023-03-14T03:18:00;1.65;;;0.35;;
61756;SDS011;57225;61.460;24.060;2023-03-14T03:20:45;1.90;;;0.90;;
61756;SDS011;57225;61.460;24.060;2023-03-14T03:23:29;0.60;;;0.45;;
61756;SDS011;57225;61.460;24.060;2023-03-14T03:26:13;0.80;;;0.70;;
61756;SDS011;57225;61.460;24.060;2023-03-14T03:28:58;0.73;;;0.45;;
61756;SDS011;57225;61.460;24.060;2023-03-14T03:31:42;1.48;;;0.70;;
61756;SDS011;57225;61.460;24.060;2023-03-14T03:34:28;0.77;;;0.50;;
61756;SDS011;57225;61.460;24.060;2023-03-14T03:37:13;1.45;;;0.63;;
61756;SDS011;57225;61.460;24.060;2023-03-14T03:39:57;0.98;;;0.50;;
61756;SDS011;57225;61.460;24.060;2023-03-14T03:42:42;0.32;;;0.30;;
61756;SDS011;57225;61.460;24.060;2023-03-14T03:45:26;0.40;;;0.40;;
61756;SDS011;57225;61.460;24.060;2023-03-14T03:48:11;0.30;;;0.22;;
61756;SDS011;57225;61.460;24.060;2023-03-14T03:50:55;2.05;;;0.70;;
61756;SDS011;57225;61.460;24.060;2023-03-14T03:53:40;3.10;;;0.90;;
61756;SDS011;57225;61.460;24.060;2023-03-14T03:56:25;1.88;;;0.82;;
61756;SDS011;57225;61.460;24.060;2023-03-14T03:59:09;2.20;;;0.80;;
61756;SDS011;57225;61.460;24.060;2023-03-14T04:01:53;4.18;;;0.88;;
61756;SDS011;57225;61.460;24.060;2023-03-14T04:04:38;1.60;;;0.75;;
61756;SDS011;57225;61.460;24.060;2023-03-14T04:07:22;3.08;;;0.77;;
61756;SDS011;57225;61.460;24.060;2023-03-14T04:10:07;1.15;;;0.85;;
61756;SDS011;57225;61.460;24.060;2023-03-14T04:12:52;1.15;;;0.88;;
61756;SDS011;57225;61.460;24.060;2023-03-14T04:15:36;5.55;;;1.10;;
61756;SDS011;57225;61.460;24.060;2023-03-14T04:18:21;2.88;;;0.95;;
61756;SDS011;57225;61.460;24.060;2023-03-14T04:21:08;1.52;;;0.98;;
61756;SDS011;57225;61.460;24.060;2023-03-14T04:23:52;1.60;;;1.17;;
61756;SDS011;57225;61.460;24.060;2023-03-14T04:26:37;2.92;;;1.02;;
61756;SDS011;57225;61.460;24.060;2023-03-14T04:29:21;1.98;;;0.85;;
61756;SDS011;57225;61.460;24.060;2023-03-14T04:32:06;1.90;;;0.90;;
61756;SDS011;57225;61.460;24.060;2023-03-14T04:34:50;1.98;;;1.10;;
61756;SDS011;57225;61.460;24.060;2023-03-14T04:37:38;3.22;;;1.10;;
61756;SDS011;57225;61.460;24.060;2023-03-14T04:40:22;2.78;;;1.10;;
61756;SDS011;57225;61.460;24.060;2023-03-14T04:43:10;3.50;;;1.13;;
61756;SDS011;57225;61.460;24.060;2023-03-14T04:45:56;1.10;;;0.85;;
61756;SDS011;57225;61.460;24.060;2023-03-14T04:48:41;1.63;;;0.88;;
61756;SDS011;57225;61.460;24.060;2023-03-14T04:51:25;0.70;;;0.63;;
61756;SDS011;57225;61.460;24.060;2023-03-14T04:54:11;2.15;;;0.80;;
61756;SDS011;57225;61.460;24.060;2023-03-14T04:56:55;1.67;;;0.63;;
61756;SDS011;57225;61.460;24.060;2023-03-14T04:59:39;1.10;;;0.70;;
61756;SDS011;57225;61.460;24.060;2023-03-14T05:02:24;1.00;;;0.43;;
61756;SDS011;57225;61.460;24.060;2023-03-14T05:05:08;0.82;;;0.60;;
61756;SDS011;57225;61.460;24.060;2023-03-14T05:07:53;4.43;;;0.90;;
61756;SDS011;57225;61.460;24.060;2023-03-14T05:10:37;1.55;;;0.70;;
61756;SDS011;57225;61.460;24.060;2023-03-14T05:13:22;4.45;;;1.40;;
61756;SDS011;57225;61.460;24.060;2023-03-14T05:16:07;1.30;;;0.57;;
61756;SDS011;57225;61.460;24.060;2023-03-14T05:18:53;1.58;;;0.88;;
61756;SDS011;57225;61.460;24.060;2023-03-14T05:21:43;1.90;;;0.70;;
61756;SDS011;57225;61.460;24.060;2023-03-14T05:24:28;5.72;;;0.70;;
61756;SDS011;57225;61.460;24.060;2023-03-14T05:27:13;1.20;;;0.68;;
61756;SDS011;57225;61.460;24.060;2023-03-14T05:29:57;1.42;;;0.60;;
61756;SDS011;57225;61.460;24.060;2023-03-14T05:32:42;0.52;;;0.50;;
61756;SDS011;57225;61.460;24.060;2023-03-14T05:35:26;0.65;;;0.47;;
61756;SDS011;57225;61.460;24.060;2023-03-14T05:38:10;2.28;;;0.55;;
61756;SDS011;57225;61.460;24.060;2023-03-14T05:40:55;5.47;;;0.55;;
61756;SDS011;57225;61.460;24.060;2023-03-14T05:43:39;2.67;;;0.70;;
61756;SDS011;57225;61.460;24.060;2023-03-14T05:46:24;1.35;;;0.50;;
61756;SDS011;57225;61.460;24.060;2023-03-14T05:49:08;2.55;;;0.60;;
61756;SDS011;57225;61.460;24.060;2023-03-14T05:51:53;3.40;;;0.80;;
61756;SDS011;57225;61.460;24.060;2023-03-14T05:54:37;1.23;;;0.70;;
61756;SDS011;57225;61.460;24.060;2023-03-14T05:57:21;3.13;;;0.30;;
61756;SDS011;57225;61.460;24.060;2023-03-14T06:00:06;1.60;;;0.70;;
61756;SDS011;57225;61.460;24.060;2023-03-14T06:02:53;2.00;;;0.60;;
61756;SDS011;57225;61.460;24.060;2023-03-14T06:05:38;2.72;;;0.63;;
61756;SDS011;57225;61.460;24.060;2023-03-14T06:08:23;3.90;;;0.65;;
61756;SDS011;57225;61.460;24.060;2023-03-14T06:11:08;0.98;;;0.50;;
61756;SDS011;57225;61.460;24.060;2023-03-14T06:13:52;2.50;;;0.32;;
61756;SDS011;57225;61.460;24.060;2023-03-14T06:16:37;1.90;;;0.43;;
61756;SDS011;57225;61.460;24.060;2023-03-14T06:19:21;1.15;;;0.60;;
61756;SDS011;57225;61.460;24.060;2023-03-14T06:22:07;1.08;;;0.60;;
61756;SDS011;57225;61.460;24.060;2023-03-14T06:24:51;1.98;;;0.70;;
61756;SDS011;57225;61.460;24.060;2023-03-14T06:27:36;2.80;;;0.52;;
61756;SDS011;57225;61.460;24.060;2023-03-14T06:30:20;3.97;;;0.32;;
61756;SDS011;57225;61.460;24.060;2023-03-14T06:33:05;2.20;;;0.65;;
61756;SDS011;57225;61.460;24.060;2023-03-14T06:35:50;1.13;;;0.55;;
61756;SDS011;57225;61.460;24.060;2023-03-14T06:56:28;2.55;;;0.45;;
61756;SDS011;57225;61.460;24.060;2023-03-14T06:59:13;3.42;;;0.82;;
61756;SDS011;57225;61.460;24.060;2023-03-14T07:01:57;3.00;;;0.65;;
61756;SDS011;57225;61.460;24.060;2023-03-14T07:04:41;1.35;;;0.60;;
61756;SDS011;57225;61.460;24.060;2023-03-14T07:07:26;6.18;;;0.70;;
61756;SDS011;57225;61.460;24.060;2023-03-14T07:10:11;5.38;;;0.90;;
61756;SDS011;57225;61.460;24.060;2023-03-14T07:12:55;4.10;;;1.17;;
61756;SDS011;57225;61.460;24.060;2023-03-14T07:15:40;2.28;;;0.50;;
61756;SDS011;57225;61.460;24.060;2023-03-14T07:18:24;2.83;;;0.47;;
61756;SDS011;57225;61.460;24.060;2023-03-14T07:21:09;2.53;;;0.60;;
61756;SDS011;57225;61.460;24.060;2023-03-14T07:23:53;5.35;;;0.47;;
61756;SDS011;57225;61.460;24.060;2023-03-14T07:26:38;3.33;;;0.40;;
61756;SDS011;57225;61.460;24.060;2023-03-14T07:29:22;2.65;;;0.40;;
61756;SDS011;57225;61.460;24.060;2023-03-14T07:32:07;0.43;;;0.20;;
61756;SDS011;57225;61.460;24.060;2023-03-14T07:34:51;4.13;;;0.50;;
61756;SDS011;57225;61.460;24.060;2023-03-14T07:37:35;1.42;;;0.30;;
61756;SDS011;57225;61.460;24.060;2023-03-14T07:40:20;0.98;;;0.32;;
61756;SDS011;57225;61.460;24.060;2023-03-14T07:43:05;6.00;;;0.73;;
61756;SDS011;57225;61.460;24.060;2023-03-14T07:45:49;1.45;;;0.20;;
61756;SDS011;57225;61.460;24.060;2023-03-14T07:48:33;1.30;;;0.35;;
61756;SDS011;57225;61.460;24.060;2023-03-14T07:51:19;0.70;;;0.10;;
61756;SDS011;57225;61.460;24.060;2023-03-14T07:54:03;1.55;;;0.50;;
61756;SDS011;57225;61.460;24.060;2023-03-14T07:56:47;1.50;;;0.38;;
61756;SDS011;57225;61.460;24.060;2023-03-14T07:59:32;2.05;;;0.30;;
61756;SDS011;57225;61.460;24.060;2023-03-14T08:02:16;0.98;;;0.20;;
61756;SDS011;57225;61.460;24.060;2023-03-14T08:05:04;1.08;;;0.40;;
61756;SDS011;57225;61.460;24.060;2023-03-14T08:07:48;0.30;;;0.17;;
61756;SDS011;57225;61.460;24.060;2023-03-14T08:10:33;2.10;;;0.28;;
61756;SDS011;57225;61.460;24.060;2023-03-14T08:13:17;1.67;;;0.22;;
61756;SDS011;57225;61.460;24.060;2023-03-14T08:16:02;0.60;;;0.20;;
61756;SDS011;57225;61.460;24.060;2023-03-14T08:18:47;1.83;;;0.32;;
61756;SDS011;57225;61.460;24.060;2023-03-14T08:21:32;1.20;;;0.20;;
61756;SDS011;57225;61.460;24.060;2023-03-14T08:24:16;1.17;;;0.30;;
61756;SDS011;57225;61.460;24.060;2023-03-14T08:27:01;0.50;;;0.10;;
61756;SDS011;57225;61.460;24.060;2023-03-14T08:29:45;0.57;;;0.20;;
61756;SDS011;57225;61.460;24.060;2023-03-14T08:32:30;0.85;;;0.28;;
61756;SDS011;57225;61.460;24.060;2023-03-14T08:35:15;1.20;;;0.20;;
61756;SDS011;57225;61.460;24.060;2023-03-14T08:37:59;1.40;;;0.30;;
61756;SDS011;57225;61.460;24.060;2023-03-14T08:40:43;1.13;;;0.30;;
61756;SDS011;57225;61.460;24.060;2023-03-14T08:43:28;0.95;;;0.50;;
61756;SDS011;57225;61.460;24.060;2023-03-14T08:46:12;1.60;;;0.20;;
61756;SDS011;57225;61.460;24.060;2023-03-14T08:48:57;1.75;;;0.50;;
61756;SDS011;57225;61.460;24.060;2023-03-14T08:51:41;2.35;;;0.20;;
61756;SDS011;57225;61.460;24.060;2023-03-14T08:54:25;0.88;;;0.20;;
61756;SDS011;57225;61.460;24.060;2023-03-14T08:57:10;0.47;;;0.30;;
61756;SDS011;57225;61.460;24.060;2023-03-14T08:59:55;0.52;;;0.22;;
61756;SDS011;57225;61.460;24.060;2023-03-14T09:02:40;1.88;;;0.20;;
61756;SDS011;57225;61.460;24.060;2023-03-14T09:05:27;0.82;;;0.45;;
61756;SDS011;57225;61.460;24.060;2023-03-14T09:08:11;1.30;;;0.30;;
61756;SDS011;57225;61.460;24.060;2023-03-14T09:10:56;0.93;;;0.40;;
61756;SDS011;57225;61.460;24.060;2023-03-14T09:13:40;0.10;;;0.10;;
61756;SDS011;57225;61.460;24.060;2023-03-14T09:16:25;0.80;;;0.25;;
61756;SDS011;57225;61.460;24.060;2023-03-14T09:19:09;1.13;;;0.60;;
61756;SDS011;57225;61.460;24.060;2023-03-14T09:21:54;0.80;;;0.20;;
61756;SDS011;57225;61.460;24.060;2023-03-14T09:24:41;0.60;;;0.20;;
61756;SDS011;57225;61.460;24.060;2023-03-14T09:27:26;1.38;;;0.30;;
61756;SDS011;57225;61.460;24.060;2023-03-14T09:30:11;1.33;;;0.30;;
61756;SDS011;57225;61.460;24.060;2023-03-14T09:32:55;1.58;;;0.30;;
61756;SDS011;57225;61.460;24.060;2023-03-14T09:35:41;2.78;;;0.35;;
61756;SDS011;57225;61.460;24.060;2023-03-14T09:38:25;0.77;;;0.30;;
61756;SDS011;57225;61.460;24.060;2023-03-14T09:44:21;1.70;;;0.32;;
61756;SDS011;57225;61.460;24.060;2023-03-14T09:47:12;2.55;;;0.20;;
61756;SDS011;57225;61.460;24.060;2023-03-14T09:49:58;0.85;;;0.32;;
61756;SDS011;57225;61.460;24.060;2023-03-14T09:52:48;3.78;;;0.40;;
61756;SDS011;57225;61.460;24.060;2023-03-14T09:55:35;2.03;;;0.30;;
61756;SDS011;57225;61.460;24.060;2023-03-14T09:58:21;0.77;;;0.20;;
61756;SDS011;57225;61.460;24.060;2023-03-14T10:01:08;1.58;;;0.32;;
61756;SDS011;57225;61.460;24.060;2023-03-14T10:03:59;1.25;;;0.20;;
61756;SDS011;57225;61.460;24.060;2023-03-14T10:06:48;0.40;;;0.13;;
61756;SDS011;57225;61.460;24.060;2023-03-14T10:09:32;0.43;;;0.38;;
61756;SDS011;57225;61.460;24.060;2023-03-14T10:12:18;1.13;;;0.38;;
61756;SDS011;57225;61.460;24.060;2023-03-14T10:15:06;0.55;;;0.20;;
61756;SDS011;57225;61.460;24.060;2023-03-14T10:17:53;1.52;;;0.40;;
61756;SDS011;57225;61.460;24.060;2023-03-14T10:20:38;0.73;;;0.25;;
61756;SDS011;57225;61.460;24.060;2023-03-14T10:23:27;0.55;;;0.15;;
61756;SDS011;57225;61.460;24.060;2023-03-14T10:29:03;1.67;;;0.30;;
61756;SDS011;57225;61.460;24.060;2023-03-14T10:31:59;2.30;;;0.35;;
61756;SDS011;57225;61.460;24.060;2023-03-14T10:34:46;0.55;;;0.20;;
61756;SDS011;57225;61.460;24.060;2023-03-14T10:37:56;1.85;;;0.28;;
61756;SDS011;57225;61.460;24.060;2023-03-14T10:40:50;1.15;;;0.40;;
61756;SDS011;57225;61.460;24.060;2023-03-14T10:43:36;2.13;;;0.70;;
61756;SDS011;57225;61.460;24.060;2023-03-14T10:46:23;2.60;;;0.70;;
61756;SDS011;57225;61.460;24.060;2023-03-14T10:49:21;0.55;;;0.40;;
61756;SDS011;57225;61.460;24.060;2023-03-14T10:52:17;0.30;;;0.30;;
61756;SDS011;57225;61.460;24.060;2023-03-14T10:55:11;1.95;;;0.40;;
61756;SDS011;57225;61.460;24.060;2023-03-14T10:57:57;3.83;;;0.47;;
61756;SDS011;57225;61.460;24.060;2023-03-14T11:00:41;0.75;;;0.30;;
61756;SDS011;57225;61.460;24.060;2023-03-14T11:03:26;1.33;;;0.30;;
61756;SDS011;57225;61.460;24.060;2023-03-14T11:09:05;2.15;;;0.70;;
61756;SDS011;57225;61.460;24.060;2023-03-14T11:15:34;2.42;;;0.30;;
61756;SDS011;57225;61.460;24.060;2023-03-14T11:21:12;3.42;;;0.63;;
61756;SDS011;57225;61.460;24.060;2023-03-14T11:27:25;2.20;;;0.80;;
61756;SDS011;57225;61.460;24.060;2023-03-14T11:30:19;0.90;;;0.52;;
61756;SDS011;57225;61.460;24.060;2023-03-14T11:33:14;3.95;;;0.80;;
61756;SDS011;57225;61.460;24.060;2023-03-14T11:38:57;2.08;;;0.60;;
61756;SDS011;57225;61.460;24.060;2023-03-14T11:41:47;0.80;;;0.30;;
61756;SDS011;57225;61.460;24.060;2023-03-14T11:44:38;1.48;;;0.57;;
61756;SDS011;57225;61.460;24.060;2023-03-14T11:47:32;3.60;;;0.50;;
61756;SDS011;57225;61.460;24.060;2023-03-14T11:50:27;1.58;;;0.40;;
61756;SDS011;57225;61.460;24.060;2023-03-14T11:53:19;0.57;;;0.35;;
61756;SDS011;57225;61.460;24.060;2023-03-14T11:56:12;2.30;;;0.68;;
61756;SDS011;57225;61.460;24.060;2023-03-14T11:59:07;0.20;;;0.20;;
61756;SDS011;57225;61.460;24.060;2023-03-14T12:11:03;1.75;;;0.30;;
61756;SDS011;57225;61.460;24.060;2023-03-14T12:13:54;1.85;;;0.47;;
61756;SDS011;57225;61.460;24.060;2023-03-14T12:16:38;0.98;;;0.40;;
61756;SDS011;57225;61.460;24.060;2023-03-14T12:24:56;2.80;;;0.40;;
61756;SDS011;57225;61.460;24.060;2023-03-14T12:27:45;0.95;;;0.43;;
61756;SDS011;57225;61.460;24.060;2023-03-14T12:30:46;1.55;;;0.63;;
61756;SDS011;57225;61.460;24.060;2023-03-14T12:33:31;1.15;;;0.30;;
61756;SDS011;57225;61.460;24.060;2023-03-14T12:36:18;0.15;;;0.10;;
61756;SDS011;57225;61.460;24.060;2023-03-14T12:39:43;0.20;;;0.10;;
61756;SDS011;57225;61.460;24.060;2023-03-14T12:42:59;1.85;;;0.40;;
61756;SDS011;57225;61.460;24.060;2023-03-14T12:46:05;0.63;;;0.30;;
61756;SDS011;57225;61.460;24.060;2023-03-14T12:51:46;0.75;;;0.45;;
61756;SDS011;57225;61.460;24.060;2023-03-14T13:01:23;4.20;;;0.60;;
61756;SDS011;57225;61.460;24.060;2023-03-14T13:04:09;3.30;;;0.52;;
61756;SDS011;57225;61.460;24.060;2023-03-14T13:06:58;2.05;;;0.65;;
61756;SDS011;57225;61.460;24.060;2023-03-14T13:09:52;1.20;;;0.70;;
61756;SDS011;57225;61.460;24.060;2023-03-14T13:15:37;11.32;;;1.10;;
61756;SDS011;57225;61.460;24.060;2023-03-14T13:21:21;2.95;;;1.30;;
61756;SDS011;57225;61.460;24.060;2023-03-14T13:24:20;4.10;;;1.10;;
61756;SDS011;57225;61.460;24.060;2023-03-14T13:27:15;1.95;;;0.90;;
61756;SDS011;57225;61.460;24.060;2023-03-14T13:30:14;2.72;;;1.02;;
61756;SDS011;57225;61.460;24.060;2023-03-14T13:33:02;0.80;;;0.50;;
61756;SDS011;57225;61.460;24.060;2023-03-14T13:35:49;4.15;;;1.10;;
61756;SDS011;57225;61.460;24.060;2023-03-14T13:38:42;2.30;;;0.80;;
61756;SDS011;57225;61.460;24.060;2023-03-14T13:41:27;2.50;;;0.93;;
61756;SDS011;57225;61.460;24.060;2023-03-14T13:44:16;2.28;;;1.15;;
61756;SDS011;57225;61.460;24.060;2023-03-14T13:47:17;1.13;;;0.50;;
61756;SDS011;57225;61.460;24.060;2023-03-14T13:50:04;3.35;;;0.95;;
61756;SDS011;57225;61.460;24.060;2023-03-14T13:52:54;1.75;;;0.73;;
61756;SDS011;57225;61.460;24.060;2023-03-14T13:55:40;2.30;;;0.98;;
61756;SDS011;57225;61.460;24.060;2023-03-14T13:58:28;2.95;;;0.77;;
61756;SDS011;57225;61.460;24.060;2023-03-14T14:01:18;4.13;;;0.80;;
61756;SDS011;57225;61.460;24.060;2023-03-14T14:04:13;1.83;;;0.80;;
61756;SDS011;57225;61.460;24.060;2023-03-14T14:07:00;1.27;;;0.50;;
61756;SDS011;57225;61.460;24.060;2023-03-14T14:09:51;2.33;;;0.50;;
61756;SDS011;57225;61.460;24.060;2023-03-14T14:12:39;3.67;;;0.88;;
61756;SDS011;57225;61.460;24.060;2023-03-14T14:15:30;1.73;;;0.80;;
61756;SDS011;57225;61.460;24.060;2023-03-14T14:21:05;3.42;;;0.77;;
61756;SDS011;57225;61.460;24.060;2023-03-14T14:23:50;4.15;;;1.02;;
61756;SDS011;57225;61.460;24.060;2023-03-14T14:26:40;2.85;;;1.23;;
61756;SDS011;57225;61.460;24.060;2023-03-14T14:29:32;1.38;;;0.70;;
61756;SDS011;57225;61.460;24.060;2023-03-14T14:32:17;2.22;;;0.85;;
61756;SDS011;57225;61.460;24.060;2023-03-14T14:35:01;5.95;;;1.38;;
61756;SDS011;57225;61.460;24.060;2023-03-14T14:37:47;5.10;;;1.83;;
61756;SDS011;57225;61.460;24.060;2023-03-14T14:40:32;2.33;;;1.00;;
61756;SDS011;57225;61.460;24.060;2023-03-14T14:43:21;2.17;;;1.00;;
61756;SDS011;57225;61.460;24.060;2023-03-14T14:46:08;3.05;;;1.00;;
61756;SDS011;57225;61.460;24.060;2023-03-14T14:48:57;4.63;;;0.90;;
61756;SDS011;57225;61.460;24.060;2023-03-14T14:51:49;1.73;;;0.57;;
61756;SDS011;57225;61.460;24.060;2023-03-14T14:54:38;3.00;;;0.73;;
61756;SDS011;57225;61.460;24.060;2023-03-14T14:57:38;3.63;;;1.10;;
61756;SDS011;57225;61.460;24.060;2023-03-14T15:00:25;2.05;;;1.20;;
61756;SDS011;57225;61.460;24.060;2023-03-14T15:03:12;4.72;;;1.30;;
61756;SDS011;57225;61.460;24.060;2023-03-14T15:05:59;3.22;;;1.15;;
61756;SDS011;57225;61.460;24.060;2023-03-14T15:08:47;1.40;;;0.80;;
61756;SDS011;57225;61.460;24.060;2023-03-14T15:11:32;2.17;;;0.90;;
61756;SDS011;57225;61.460;24.060;2023-03-14T15:14:16;6.90;;;1.00;;
61756;SDS011;57225;61.460;24.060;2023-03-14T15:17:01;4.30;;;1.00;;
61756;SDS011;57225;61.460;24.060;2023-03-14T15:19:46;4.18;;;1.00;;
61756;SDS011;57225;61.460;24.060;2023-03-14T15:22:30;2.05;;;0.95;;
61756;SDS011;57225;61.460;24.060;2023-03-14T15:25:15;2.63;;;1.25;;
61756;SDS011;57225;61.460;24.060;2023-03-14T15:27:59;4.00;;;1.35;;
61756;SDS011;57225;61.460;24.060;2023-03-14T15:30:44;5.60;;;1.20;;
61756;SDS011;57225;61.460;24.060;2023-03-14T15:33:29;3.28;;;1.08;;
61756;SDS011;57225;61.460;24.060;2023-03-14T15:36:24;5.72;;;1.20;;
61756;SDS011;57225;61.460;24.060;2023-03-14T15:39:10;6.18;;;1.70;;
61756;SDS011;57225;61.460;24.060;2023-03-14T15:41:54;3.13;;;1.38;;
61756;SDS011;57225;61.460;24.060;2023-03-14T15:44:39;7.78;;;1.88;;
61756;SDS011;57225;61.460;24.060;2023-03-14T15:47:23;21.33;;;4.72;;
61756;SDS011;57225;61.460;24.060;2023-03-14T15:50:09;19.77;;;4.90;;
61756;SDS011;57225;61.460;24.060;2023-03-14T15:52:54;11.27;;;3.30;;
61756;SDS011;57225;61.460;24.060;2023-03-14T15:55:39;7.80;;;2.42;;
61756;SDS011;57225;61.460;24.060;2023-03-14T15:58:24;2.83;;;1.25;;
61756;SDS011;57225;61.460;24.060;2023-03-14T16:01:08;3.75;;;1.83;;
61756;SDS011;57225;61.460;24.060;2023-03-14T16:03:53;3.35;;;1.80;;
61756;SDS011;57225;61.460;24.060;2023-03-14T16:06:37;2.10;;;1.52;;
61756;SDS011;57225;61.460;24.060;2023-03-14T16:09:22;3.95;;;2.33;;
61756;SDS011;57225;61.460;24.060;2023-03-14T16:12:07;4.80;;;2.80;;
61756;SDS011;57225;61.460;24.060;2023-03-14T16:14:52;4.65;;;1.92;;
61756;SDS011;57225;61.460;24.060;2023-03-14T16:17:37;3.00;;;1.70;;
61756;SDS011;57225;61.460;24.060;2023-03-14T16:20:23;6.00;;;2.15;;
61756;SDS011;57225;61.460;24.060;2023-03-14T16:23:08;4.35;;;1.92;;
61756;SDS011;57225;61.460;24.060;2023-03-14T16:25:52;10.18;;;1.98;;
61756;SDS011;57225;61.460;24.060;2023-03-14T16:28:38;2.22;;;1.20;;
61756;SDS011;57225;61.460;24.060;2023-03-14T16:31:22;3.97;;;1.13;;
61756;SDS011;57225;61.460;24.060;2023-03-14T16:34:09;3.78;;;1.30;;
61756;SDS011;57225;61.460;24.060;2023-03-14T16:36:53;4.05;;;2.20;;
61756;SDS011;57225;61.460;24.060;2023-03-14T16:39:38;7.05;;;3.55;;
61756;SDS011;57225;61.460;24.060;2023-03-14T16:42:22;4.43;;;2.08;;
61756;SDS011;57225;61.460;24.060;2023-03-14T16:45:08;3.83;;;1.50;;
61756;SDS011;57225;61.460;24.060;2023-03-14T16:47:52;4.60;;;1.20;;
61756;SDS011;57225;61.460;24.060;2023-03-14T16:50:38;7.93;;;1.25;;
61756;SDS011;57225;61.460;24.060;2023-03-14T16:53:23;10.30;;;1.20;;
61756;SDS011;57225;61.460;24.060;2023-03-14T16:56:12;3.10;;;1.03;;
61756;SDS011;57225;61.460;24.060;2023-03-14T16:58:56;3.40;;;1.10;;
61756;SDS011;57225;61.460;24.060;2023-03-14T17:01:40;3.22;;;0.95;;
61756;SDS011;57225;61.460;24.060;2023-03-14T17:04:26;4.00;;;0.95;;
61756;SDS011;57225;61.460;24.060;2023-03-14T17:07:10;3.92;;;0.98;;
61756;SDS011;57225;61.460;24.060;2023-03-14T17:09:55;7.30;;;0.90;;
61756;SDS011;57225;61.460;24.060;2023-03-14T17:12:39;4.93;;;1.10;;
61756;SDS011;57225;61.460;24.060;2023-03-14T17:15:24;3.50;;;0.88;;
61756;SDS011;57225;61.460;24.060;2023-03-14T17:18:08;2.58;;;1.00;;
61756;SDS011;57225;61.460;24.060;2023-03-14T17:20:54;3.95;;;1.00;;
61756;SDS011;57225;61.460;24.060;2023-03-14T17:23:39;6.15;;;1.20;;
61756;SDS011;57225;61.460;24.060;2023-03-14T17:26:23;4.22;;;1.23;;
61756;SDS011;57225;61.460;24.060;2023-03-14T17:29:08;2.92;;;1.15;;
61756;SDS011;57225;61.460;24.060;2023-03-14T17:31:52;2.75;;;1.17;;
61756;SDS011;57225;61.460;24.060;2023-03-14T17:34:36;3.10;;;1.27;;
61756;SDS011;57225;61.460;24.060;2023-03-14T17:37:21;2.50;;;1.50;;
61756;SDS011;57225;61.460;24.060;2023-03-14T17:40:06;4.70;;;1.80;;
61756;SDS011;57225;61.460;24.060;2023-03-14T17:42:51;4.22;;;1.50;;
61756;SDS011;57225;61.460;24.060;2023-03-14T17:45:36;3.67;;;1.73;;
61756;SDS011;57225;61.460;24.060;2023-03-14T17:48:22;4.38;;;1.95;;
61756;SDS011;57225;61.460;24.060;2023-03-14T17:51:07;3.92;;;1.48;;